航空気象通報

ウインドサーファーのための航空気象通報による風予報です。

7/17-7/19の航空気象通報

2017年07月17日 23時25分21秒 | TAF
羽田空港
TAF RJTT 171105Z 1712/1818 19010KT 9999 FEW030
BECMG 1717/1719 02006KT
BECMG 1800/1803 08008KT
TEMPO 1803/1809 TSRA FEW015 FEW020CB BKN030
日本時間17日21時-18日02時:190度から10ノットの風
02-04時:風が変化
04-09時:020度から6ノットの風
09-12時:風が変化
12時-19日03時:080度から8ノットの風

但し、18日12-18時の間:ときどき

静岡空港
TAF RJNS 171109Z 1712/1818 20004KT 9999 FEW030
BECMG 1712/1714 26010KT
BECMG 1809/1812 34004KT
日本時間17日21時:200度から4ノットの風
21-23時:風が変化
23時-18日18時:260度から10ノットの風
18-21時:風が変化
21時-19日03時:340度から4ノットの風


福岡空港
TAF RJFF 171110Z 1712/1818 31006KT 9999 FEW020 SCT045
BECMG 1712/1714 15005KT
TEMPO 1718/1800 3000 TSRA BR FEW007 SCT025 FEW025CB BKN035
BECMG 1803/1806 32005KT
BECMG 1809/1812 15006KT
日本時間17日21時:310度から6ノットの風
21-23時:風が変化
23時-18日12時:150度から5ノットの風
12-15時:風が変化
15-18時:320度から5ノットの風
18-21時:風が変化
21時-19日03時:150度から6ノットの風

但し、18日03-09時の間:ときどき

那覇空港
TAF ROAH 171106Z 1712/1818 19004KT 9999 FEW015
TEMPO 1803/1809 SHRA FEW010 BKN020 FEW025CB
日本時間17日21時-19日03時:190度から4ノットの風

但し、18日12-18時の間:ときどき

石垣空港
TAF ROIG 171108Z 1712/1818 14004KT 9999 FEW015
BECMG 1721/1723 12006KT
日本時間17日21時-18日06時:140度から4ノットの風
06-08時:風が変化
08時-19日03時:120度から6ノットの風


マウイのカフルイ空港
PHOG 171120Z 1712/1812 04008KT P6SM VCSH FEW025 SCT050 BKN250
FM172000 04019G26KT P6SM VCSH FEW030 SCT050
FM180600 04008KT P6SM VCSH FEW030 SCT050 AMD LTD TO VIS AND WIND TIL 171600
ハワイ時間17日02-10時:040度から8ノットの風

10-20時:040度から19ノット、突風26ノット
20時-18日02時:040度から8ノットの風


サイパン空港
Data at: 1423 UTC 17 Jul 2017
TAF PGSN 171124Z 1712/1812 07011KT P6SM VCSH FEW020 SCT050
FM180000 07013G20KT P6SM VCSH SCT020 SCT050 SCT140
マリアナ時間17日22時-18日10時:070度から11ノットの風
10-22時:070度から13ノット、突風20ノット

ジャンル:
お天気
コメント   この記事についてブログを書く
この記事をはてなブックマークに追加
« 7/16-7/18の航空気象通報 | トップ | 7/18-7/20の航空気象通報 »
最近の画像もっと見る

コメントを投稿

ブログ作成者から承認されるまでコメントは反映されません。

TAF」カテゴリの最新記事

トラックバック

この記事のトラックバック  Ping-URL
ブログ作成者から承認されるまでトラックバックは反映されません。
  • 30日以上前の記事に対するトラックバックは受け取らないよう設定されております。
  • 送信元の記事内容が半角英数のみのトラックバックは受け取らないよう設定されております。
  • このブログへのリンクがない記事からのトラックバックは受け取らないよう設定されております。
  • ※ブログ管理者のみ、編集画面で設定の変更が可能です。